Time;durP1;ratioP1;P1;durP2;ratioP2;P2;SDS_P1;SDS_P2;PMS_P1;PMS_P2;Temp;Humidity;BMP_temperature;BMP_pressure;BME280_temperature;BME280_humidity;BME280_pressure;Samples;Min_cycle;Max_cycle;Signal;HPM_P1;HPM_P2
2022/11/15 00:01:54;;;;;;;85.43;31.48;;;5.10;99.90;;;;;;4997898;28;20023;-89
2022/11/15 00:04:20;;;;;;;89.78;32.25;;;5.20;99.90;;;;;;4984471;28;20137;-87
2022/11/15 00:06:46;;;;;;;112.72;33.05;;;5.10;99.90;;;;;;4984313;28;20078;-83
2022/11/15 00:09:11;;;;;;;155.05;35.58;;;5.00;99.90;;;;;;4983358;28;20026;-85
2022/11/15 00:11:37;;;;;;;102.63;31.52;;;4.90;99.90;;;;;;4983876;28;20072;-87
2022/11/15 00:14:03;;;;;;;136.32;31.90;;;4.90;99.90;;;;;;5001804;28;20026;-84
2022/11/15 00:16:28;;;;;;;127.30;33.63;;;4.70;99.90;;;;;;4986195;28;20031;-87
2022/11/15 00:18:54;;;;;;;102.80;34.45;;;4.70;99.90;;;;;;4984105;28;20058;-82
2022/11/15 00:21:20;;;;;;;91.30;34.00;;;4.70;99.90;;;;;;5000064;28;20034;-85
2022/11/15 00:23:46;;;;;;;142.65;34.17;;;4.80;99.90;;;;;;4983706;28;20033;-83
2022/11/15 00:26:13;;;;;;;129.63;34.38;;;4.80;99.90;;;;;;4983656;28;20038;-85
2022/11/15 00:28:39;;;;;;;131.18;32.20;;;4.70;99.90;;;;;;4984212;28;20026;-84
2022/11/15 00:31:08;;;;;;;105.88;33.55;;;4.70;99.90;;;;;;4983933;28;20112;-85
2022/11/15 00:33:34;;;;;;;85.22;30.58;;;4.70;99.90;;;;;;4985154;28;20037;-82
2022/11/15 00:36:11;;;;;;;108.03;32.10;;;4.70;99.90;;;;;;4985396;28;20030;-82
2022/11/15 00:38:39;;;;;;;125.07;33.27;;;4.80;99.90;;;;;;4998530;28;20027;-84
2022/11/15 00:41:06;;;;;;;127.72;32.97;;;4.70;99.90;;;;;;4981118;28;20278;-85
2022/11/15 00:43:32;;;;;;;127.22;31.58;;;4.60;99.90;;;;;;4981410;28;20073;-82
2022/11/15 00:45:58;;;;;;;109.00;34.05;;;4.60;99.90;;;;;;4982973;28;20474;-83
2022/11/15 00:48:24;;;;;;;135.88;35.55;;;4.70;99.90;;;;;;4985244;28;20496;-85
2022/11/15 00:50:50;;;;;;;112.88;34.83;;;4.60;99.90;;;;;;4999573;28;20052;-86
2022/11/15 00:53:18;;;;;;;102.20;34.28;;;4.50;99.90;;;;;;4985563;28;20473;-83
2022/11/15 00:55:44;;;;;;;90.70;35.47;;;4.60;99.90;;;;;;4983660;28;20031;-83
2022/11/15 00:58:09;;;;;;;100.28;35.88;;;4.50;99.90;;;;;;4985277;28;20026;-82
2022/11/15 01:00:35;;;;;;;99.90;35.45;;;4.60;99.90;;;;;;5000305;28;20058;-84
2022/11/15 01:03:01;;;;;;;87.10;34.13;;;4.60;99.90;;;;;;4998255;28;20023;-86
2022/11/15 01:05:28;;;;;;;92.28;35.80;;;4.50;99.90;;;;;;4982617;28;20030;-82
2022/11/15 01:07:55;;;;;;;91.47;37.55;;;4.50;99.90;;;;;;4984102;28;20074;-81
2022/11/15 01:10:22;;;;;;;84.70;36.22;;;4.50;99.90;;;;;;5001047;28;20027;-85
2022/11/15 01:12:48;;;;;;;103.65;37.92;;;4.40;99.90;;;;;;4983871;28;20066;-82
2022/11/15 01:15:14;;;;;;;81.95;39.53;;;4.50;99.90;;;;;;4982646;28;20049;-83
2022/11/15 01:17:39;;;;;;;87.63;38.22;;;4.40;99.90;;;;;;4983886;28;20565;-82
2022/11/15 01:20:06;;;;;;;94.18;39.63;;;4.40;99.90;;;;;;4982210;28;20038;-82
2022/11/15 01:22:32;;;;;;;76.97;38.67;;;4.40;99.90;;;;;;5000255;28;20026;-81
2022/11/15 01:24:58;;;;;;;86.93;39.55;;;4.40;99.90;;;;;;4982599;28;20045;-89
2022/11/15 01:27:23;;;;;;;82.22;38.58;;;4.40;99.90;;;;;;5001405;28;20100;-83
2022/11/15 01:29:49;;;;;;;86.55;38.80;;;4.40;99.90;;;;;;4983953;28;20134;-85
2022/11/15 01:32:15;;;;;;;96.28;40.33;;;4.50;99.90;;;;;;4998433;28;20069;-84
2022/11/15 01:34:41;;;;;;;84.30;39.20;;;4.40;99.90;;;;;;4998555;28;20007;-88
2022/11/15 01:37:07;;;;;;;73.10;34.65;;;4.40;99.90;;;;;;5015311;28;20038;-85
2022/11/15 01:39:33;;;;;;;83.22;39.17;;;4.40;99.90;;;;;;4990295;28;20460;-82
2022/11/15 01:41:59;;;;;;;88.10;39.38;;;4.30;99.90;;;;;;4985967;28;20054;-84
2022/11/15 01:44:30;;;;;;;92.82;38.85;;;4.40;99.90;;;;;;5003825;23;20464;-56
2022/11/15 01:46:58;;;;;;;93.20;40.55;;;4.40;99.90;;;;;;4971999;28;20035;-57
2022/11/15 01:49:24;;;;;;;95.53;38.42;;;4.40;99.90;;;;;;4958377;28;20026;-56
2022/11/15 01:51:50;;;;;;;86.78;36.45;;;4.30;99.90;;;;;;4972800;28;20045;-58
2022/11/15 01:54:20;;;;;;;73.47;34.30;;;4.30;99.90;;;;;;4939648;28;20023;-56
2022/11/15 01:56:53;;;;;;;84.72;36.20;;;4.30;99.90;;;;;;4972334;28;20038;-55
2022/11/15 01:59:19;;;;;;;78.70;36.05;;;4.30;99.90;;;;;;4970628;28;20027;-56
2022/11/15 02:01:45;;;;;;;84.50;34.25;;;4.30;99.90;;;;;;4971367;28;20483;-57
2022/11/15 02:04:15;;;;;;;78.70;32.97;;;4.20;99.90;;;;;;4971917;28;20050;-58
2022/11/15 02:06:43;;;;;;;71.10;33.33;;;4.20;99.90;;;;;;4972554;28;20054;-52
2022/11/15 02:09:08;;;;;;;77.32;35.17;;;4.20;99.90;;;;;;4954495;28;20026;-56
2022/11/15 02:11:34;;;;;;;70.50;33.90;;;4.10;99.90;;;;;;4972246;28;20041;-55
2022/11/15 02:14:03;;;;;;;75.75;32.85;;;4.20;99.90;;;;;;4972381;28;20031;-55
2022/11/15 02:17:11;;;;;;;74.22;33.97;;;4.10;99.90;;;;;;4972137;28;20034;-55
2022/11/15 02:19:36;;;;;;;71.63;32.88;;;4.20;99.90;;;;;;4972176;28;20618;-57
2022/11/15 02:22:27;;;;;;;68.50;31.88;;;4.10;99.90;;;;;;4972072;28;20131;-57
2022/11/15 02:25:13;;;;;;;67.43;31.42;;;4.10;99.90;;;;;;4951712;28;20027;-59
2022/11/15 02:27:54;;;;;;;66.85;31.63;;;4.10;99.90;;;;;;4953121;29;20035;-57
2022/11/15 02:30:36;;;;;;;73.03;32.20;;;4.10;99.90;;;;;;4952944;29;20043;-56
2022/11/15 02:33:31;;;;;;;59.63;28.58;;;4.10;99.90;;;;;;4952626;29;20137;-55
2022/11/15 02:35:59;;;;;;;57.33;27.73;;;4.00;99.90;;;;;;4952937;29;20027;-58
2022/11/15 02:38:31;;;;;;;53.08;26.13;;;4.00;99.90;;;;;;4951463;29;20058;-57
2022/11/15 02:41:16;;;;;;;55.38;27.48;;;4.10;99.90;;;;;;4954879;28;20462;-56
2022/11/15 02:44:03;;;;;;;51.53;24.45;;;4.10;99.90;;;;;;4972181;28;20477;-55
2022/11/15 02:49:26;;;;;;;47.00;23.70;;;4.00;99.90;;;;;;4972237;28;20177;-57
2022/11/15 02:51:54;;;;;;;58.95;24.50;;;4.00;99.90;;;;;;4971839;28;20150;-56
2022/11/15 02:54:25;;;;;;;48.17;21.88;;;3.90;99.90;;;;;;4971890;28;20485;-58
2022/11/15 02:56:54;;;;;;;55.40;24.38;;;3.90;99.90;;;;;;4971972;28;20037;-56
2022/11/15 02:59:42;;;;;;;60.42;24.65;;;3.90;99.90;;;;;;4971756;28;20029;-54
2022/11/15 03:02:35;;;;;;;56.00;24.67;;;3.90;99.90;;;;;;4971724;28;20054;-57
2022/11/15 03:05:10;;;;;;;52.50;23.73;;;3.90;99.90;;;;;;4971951;28;20030;-55
2022/11/15 03:07:48;;;;;;;52.75;23.88;;;3.90;99.90;;;;;;4971904;28;20026;-57
2022/11/15 03:10:37;;;;;;;51.75;25.10;;;3.90;99.90;;;;;;4971593;28;20038;-55
2022/11/15 03:13:17;;;;;;;55.63;25.77;;;3.90;99.90;;;;;;4917171;28;20043;-57
2022/11/15 03:15:58;;;;;;;55.30;24.75;;;3.90;99.90;;;;;;4954154;28;20034;-55
2022/11/15 03:18:35;;;;;;;72.93;27.52;;;3.90;99.90;;;;;;4971469;28;20027;-54
2022/11/15 03:21:08;;;;;;;61.78;28.77;;;3.90;99.90;;;;;;4953972;28;20077;-54
2022/11/15 03:23:38;;;;;;;62.50;27.42;;;3.80;99.90;;;;;;4938529;28;20034;-58
2022/11/15 03:26:08;;;;;;;51.95;25.60;;;3.60;99.90;;;;;;4953902;28;20027;-57
2022/11/15 03:28:57;;;;;;;62.33;27.77;;;3.80;99.90;;;;;;4971517;28;20052;-54
2022/11/15 03:31:46;;;;;;;55.05;25.95;;;3.80;99.90;;;;;;4971188;28;20034;-59
2022/11/15 03:34:16;;;;;;;;;;;3.80;99.90;;;;;;4971530;28;20031;-55
2022/11/15 03:36:42;;;;;;;57.78;26.15;;;3.80;99.90;;;;;;4970627;28;20676;-55
2022/11/15 03:39:09;;;;;;;61.90;26.42;;;3.80;99.90;;;;;;4971086;28;20034;-57
2022/11/15 03:41:52;;;;;;;52.53;25.45;;;3.80;99.90;;;;;;4971124;28;20054;-53
2022/11/15 03:44:43;;;;;;;50.55;24.05;;;3.90;99.90;;;;;;4970765;28;20027;-58
2022/11/15 03:47:40;;;;;;;49.92;24.20;;;3.80;99.90;;;;;;4969578;28;20027;-56
2022/11/15 03:50:12;;;;;;;50.35;22.90;;;3.90;99.90;;;;;;4970737;28;20038;-54
2022/11/15 03:52:40;;;;;;;48.63;24.15;;;3.90;99.90;;;;;;4969517;28;20085;-58
2022/11/15 03:55:11;;;;;;;50.58;23.00;;;3.80;99.90;;;;;;4970894;28;20476;-58
2022/11/15 03:57:36;;;;;;;50.28;24.08;;;3.80;99.90;;;;;;4970932;28;20066;-54
2022/11/15 04:00:04;;;;;;;46.35;23.02;;;3.90;99.90;;;;;;4971341;28;20023;-54
2022/11/15 04:02:30;;;;;;;46.15;23.30;;;3.90;99.90;;;;;;4970615;28;20427;-55
2022/11/15 04:04:56;;;;;;;47.33;22.38;;;3.80;99.90;;;;;;4970951;28;20031;-55
2022/11/15 04:07:21;;;;;;;46.83;23.58;;;3.80;99.90;;;;;;4971227;28;20058;-54
2022/11/15 04:10:02;;;;;;;43.10;22.20;;;3.80;99.90;;;;;;4970973;28;20094;-56
2022/11/15 04:12:40;;;;;;;42.85;21.95;;;3.70;99.90;;;;;;4955626;28;20090;-59
2022/11/15 04:15:16;;;;;;;40.55;21.70;;;3.70;99.90;;;;;;4970641;28;20068;-54
2022/11/15 04:17:53;;;;;;;41.22;22.33;;;3.80;99.90;;;;;;4970838;28;20038;-58
2022/11/15 04:26:04;;;;;;;39.42;21.20;;;3.80;99.90;;;;;;4971052;28;20133;-56
2022/11/15 04:28:30;;;;;;;37.67;20.88;;;3.70;99.90;;;;;;4970608;28;20023;-56
2022/11/15 04:30:56;;;;;;;41.30;21.52;;;3.80;99.90;;;;;;4970734;28;20550;-58
2022/11/15 04:33:23;;;;;;;37.17;20.20;;;3.80;99.90;;;;;;4970660;28;20051;-54
2022/11/15 04:38:33;;;;;;;37.80;20.10;;;3.70;99.90;;;;;;4970904;28;20093;-54
2022/11/15 04:40:58;;;;;;;34.88;19.52;;;3.70;99.90;;;;;;4968941;28;20054;-54
2022/11/15 04:43:25;;;;;;;33.92;19.75;;;3.60;99.90;;;;;;4951360;28;20067;-54
2022/11/15 04:45:50;;;;;;;38.45;19.83;;;3.60;99.90;;;;;;4934092;29;20047;-54
2022/11/15 04:48:16;;;;;;;36.13;18.63;;;3.60;99.90;;;;;;4951966;28;20487;-55
2022/11/15 04:50:42;;;;;;;37.95;20.45;;;3.70;99.90;;;;;;4937674;29;20031;-55
2022/11/15 04:53:08;;;;;;;38.10;20.17;;;3.60;99.90;;;;;;4954664;29;20039;-54
2022/11/15 04:55:33;;;;;;;36.83;19.35;;;3.60;99.90;;;;;;4937265;29;20030;-54
2022/11/15 04:58:00;;;;;;;42.80;21.60;;;3.70;99.90;;;;;;4954585;29;20035;-58
2022/11/15 05:00:27;;;;;;;39.53;20.97;;;3.60;99.90;;;;;;4937367;29;20033;-55
2022/11/15 05:05:41;;;;;;;43.10;21.42;;;3.70;99.90;;;;;;4955006;29;20042;-57
2022/11/15 05:08:06;;;;;;;40.10;21.38;;;3.60;99.90;;;;;;4954404;28;20031;-57
2022/11/15 05:10:32;;;;;;;41.22;22.30;;;3.60;99.90;;;;;;4954349;29;20368;-58
2022/11/15 05:12:58;;;;;;;45.90;21.92;;;3.60;99.90;;;;;;4954257;29;20043;-57
2022/11/15 05:15:24;;;;;;;40.58;21.35;;;3.60;99.90;;;;;;4921270;29;20062;-55
2022/11/15 05:17:49;;;;;;;43.50;21.63;;;3.50;99.90;;;;;;4954314;28;20124;-54
2022/11/15 05:20:15;;;;;;;37.55;20.98;;;3.40;99.90;;;;;;4954152;29;20058;-55
2022/11/15 05:22:42;;;;;;;39.33;20.70;;;3.40;99.90;;;;;;4954169;29;20039;-53
2022/11/15 05:25:10;;;;;;;41.42;21.48;;;3.30;99.90;;;;;;4954242;28;20026;-58
2022/11/15 05:27:35;;;;;;;43.80;23.60;;;3.30;99.90;;;;;;4954062;28;20031;-56
2022/11/15 05:30:01;;;;;;;49.25;23.20;;;3.30;99.90;;;;;;4954304;29;20470;-58
2022/11/15 05:32:28;;;;;;;45.47;24.80;;;3.30;99.90;;;;;;4920551;29;20510;-57
2022/11/15 05:34:55;;;;;;;50.97;24.35;;;3.30;99.90;;;;;;4953945;29;20074;-52
2022/11/15 05:37:20;;;;;;;45.75;24.08;;;3.20;99.90;;;;;;4936638;29;20258;-58
2022/11/15 05:39:46;;;;;;;50.85;23.98;;;3.20;99.90;;;;;;4954233;29;20783;-58
2022/11/15 05:42:14;;;;;;;48.80;24.80;;;3.30;99.90;;;;;;4964672;28;20065;-59
2022/11/15 05:44:44;;;;;;;51.10;25.63;;;3.20;99.90;;;;;;4955016;28;20078;-58
2022/11/15 05:47:15;;;;;;;46.67;23.90;;;3.20;99.90;;;;;;4972848;28;20031;-55
2022/11/15 05:49:43;;;;;;;49.47;25.85;;;3.20;99.90;;;;;;4972542;28;20271;-57
2022/11/15 05:52:11;;;;;;;47.72;27.02;;;3.30;99.90;;;;;;4972058;28;20035;-58
2022/11/15 05:54:37;;;;;;;46.10;24.70;;;3.20;99.90;;;;;;4972858;28;20027;-58
2022/11/15 05:57:04;;;;;;;43.60;23.30;;;3.20;99.90;;;;;;4972711;28;20389;-54
2022/11/15 05:59:31;;;;;;;45.83;24.45;;;3.10;99.90;;;;;;4972226;28;20027;-58
2022/11/15 06:01:57;;;;;;;50.00;25.45;;;3.10;99.90;;;;;;4972565;28;20054;-54
2022/11/15 06:04:23;;;;;;;47.17;24.92;;;3.10;99.90;;;;;;4972435;28;20176;-53
2022/11/15 06:06:48;;;;;;;48.28;25.77;;;3.10;99.90;;;;;;4972338;28;20456;-53
2022/11/15 06:09:14;;;;;;;47.20;26.25;;;3.10;99.90;;;;;;4972370;28;20045;-54
2022/11/15 06:11:39;;;;;;;45.88;24.98;;;3.10;99.90;;;;;;4954630;28;20130;-58
2022/11/15 06:14:05;;;;;;;47.85;25.90;;;3.00;99.90;;;;;;4972346;28;20030;-59
2022/11/15 06:16:31;;;;;;;52.90;27.60;;;3.00;99.90;;;;;;4972615;28;20041;-57
2022/11/15 06:18:56;;;;;;;57.65;27.20;;;3.00;99.90;;;;;;4972013;28;20476;-57
2022/11/15 06:21:23;;;;;;;50.50;26.95;;;3.00;99.90;;;;;;4971504;28;20035;-56
2022/11/15 06:23:51;;;;;;;52.25;28.05;;;3.00;99.90;;;;;;4970787;28;20038;-57
2022/11/15 06:26:17;;;;;;;61.95;29.10;;;3.00;99.90;;;;;;4971639;28;20042;-53
2022/11/15 06:28:43;;;;;;;62.72;32.15;;;3.00;99.90;;;;;;4954424;28;20026;-54
2022/11/15 06:31:13;;;;;;;61.38;32.22;;;3.00;99.90;;;;;;4969321;28;20485;-59
2022/11/15 06:33:39;;;;;;;64.75;33.85;;;3.00;99.90;;;;;;4971831;28;20034;-55
2022/11/15 06:36:13;;;;;;;70.72;34.88;;;3.00;99.90;;;;;;4971758;28;20031;-58
2022/11/15 06:38:39;;;;;;;72.65;37.20;;;2.90;99.90;;;;;;4971701;28;20054;-58
2022/11/15 06:41:08;;;;;;;80.40;39.50;;;3.00;99.90;;;;;;4970227;28;20023;-58
2022/11/15 06:43:35;;;;;;;84.95;40.28;;;3.00;99.90;;;;;;4971557;28;20023;-58
2022/11/15 06:46:01;;;;;;;74.43;37.88;;;3.00;99.90;;;;;;4953376;28;20043;-57
2022/11/15 06:48:27;;;;;;;77.85;36.30;;;3.00;99.90;;;;;;4970798;28;20039;-55
2022/11/15 06:50:55;;;;;;;84.03;38.30;;;3.00;99.90;;;;;;4970831;28;20105;-59
2022/11/15 06:53:21;;;;;;;75.97;37.50;;;3.00;99.90;;;;;;4971886;28;20034;-60
2022/11/15 06:55:47;;;;;;;83.75;36.65;;;3.10;99.90;;;;;;4971722;28;20038;-60
2022/11/15 06:58:13;;;;;;;73.43;35.88;;;3.10;99.90;;;;;;4938552;28;20085;-59
2022/11/15 07:00:39;;;;;;;78.40;35.92;;;3.10;99.90;;;;;;4971584;28;20042;-58
2022/11/15 07:03:05;;;;;;;83.13;36.40;;;3.10;99.90;;;;;;4971742;28;20022;-58
2022/11/15 07:05:30;;;;;;;87.88;38.60;;;3.10;99.90;;;;;;4971559;28;20470;-58
2022/11/15 07:07:57;;;;;;;91.38;38.88;;;3.20;99.90;;;;;;4971576;28;20421;-60
2022/11/15 07:10:25;;;;;;;85.45;41.50;;;3.20;99.90;;;;;;4971324;28;20034;-55
2022/11/15 07:12:51;;;;;;;91.90;41.25;;;3.30;99.90;;;;;;4971359;28;20070;-57
2022/11/15 07:15:19;;;;;;;91.82;38.63;;;3.40;99.90;;;;;;4971537;28;20176;-55
2022/11/15 07:17:51;;;;;;;86.47;40.40;;;3.40;99.90;;;;;;4970467;28;20058;-54
2022/11/15 07:20:17;;;;;;;80.88;37.78;;;3.50;99.90;;;;;;4971219;28;20363;-57
2022/11/15 07:22:45;;;;;;;76.00;37.17;;;3.60;99.90;;;;;;4971815;28;20031;-59
2022/11/15 07:25:11;;;;;;;77.47;38.17;;;3.60;99.90;;;;;;4953209;28;20137;-59
2022/11/15 07:27:37;;;;;;;86.03;40.97;;;3.80;99.90;;;;;;4970555;28;20023;-55
2022/11/15 07:30:04;;;;;;;82.47;41.15;;;3.90;99.90;;;;;;4969272;28;20043;-53
2022/11/15 07:32:30;;;;;;;77.30;40.25;;;4.00;99.90;;;;;;4968015;28;20050;-59
2022/11/15 07:34:56;;;;;;;69.68;38.33;;;4.10;99.90;;;;;;4970186;28;20023;-61
2022/11/15 07:37:22;;;;;;;77.35;39.42;;;4.20;99.90;;;;;;4952406;28;20604;-60
2022/11/15 07:39:47;;;;;;;77.63;37.83;;;4.40;99.90;;;;;;4969564;28;20055;-59
2022/11/15 07:44:57;;;;;;;74.05;37.80;;;4.60;99.90;;;;;;4971195;28;20058;-55
2022/11/15 07:47:23;;;;;;;81.00;40.80;;;4.70;99.90;;;;;;4953590;28;20030;-53
2022/11/15 07:49:49;;;;;;;78.15;40.63;;;4.90;99.90;;;;;;4971043;28;20070;-54
2022/11/15 07:52:14;;;;;;;73.05;41.58;;;5.00;99.90;;;;;;4970772;28;20043;-54
2022/11/15 07:54:40;;;;;;;73.65;41.22;;;5.10;99.90;;;;;;4970328;28;20027;-56
2022/11/15 07:57:06;;;;;;;75.88;41.00;;;5.20;99.90;;;;;;4969903;28;20035;-54
2022/11/15 07:59:33;;;;;;;75.30;42.30;;;5.30;99.90;;;;;;4970336;28;20071;-53
2022/11/15 08:01:58;;;;;;;77.93;42.40;;;5.50;99.90;;;;;;4970777;28;20027;-54
2022/11/15 08:04:24;;;;;;;81.07;43.10;;;5.60;99.90;;;;;;4970582;28;20038;-54
2022/11/15 08:06:50;;;;;;;83.65;43.53;;;5.70;99.90;;;;;;4970874;28;20027;-54
2022/11/15 08:09:15;;;;;;;80.05;44.95;;;5.80;99.90;;;;;;4969296;28;20027;-54
2022/11/15 08:11:41;;;;;;;75.25;41.63;;;6.00;99.90;;;;;;4968721;28;20049;-55
2022/11/15 08:14:07;;;;;;;80.78;43.28;;;6.10;99.90;;;;;;4969251;28;20030;-58
2022/11/15 08:16:32;;;;;;;82.32;47.25;;;6.20;99.90;;;;;;4970108;28;20027;-58
2022/11/15 08:18:58;;;;;;;84.97;48.67;;;6.30;99.90;;;;;;4969698;28;20046;-58
2022/11/15 08:21:24;;;;;;;80.97;47.08;;;6.50;99.90;;;;;;4970569;28;20034;-58
2022/11/15 08:23:50;;;;;;;76.68;44.17;;;6.60;99.90;;;;;;4974052;28;20023;-59
2022/11/15 08:26:16;;;;;;;72.22;41.70;;;6.90;99.90;;;;;;4957323;28;20027;-57
2022/11/15 08:28:42;;;;;;;71.82;41.78;;;7.10;99.90;;;;;;4974262;28;20153;-55
2022/11/15 08:31:14;;;;;;;76.47;42.50;;;7.30;99.90;;;;;;4974639;28;20405;-55
2022/11/15 08:33:39;;;;;;;69.82;41.75;;;7.40;99.90;;;;;;4974153;28;20031;-56
2022/11/15 08:36:05;;;;;;;64.93;37.03;;;7.60;99.90;;;;;;4974415;28;20104;-55
2022/11/15 08:38:31;;;;;;;60.75;37.47;;;7.70;99.90;;;;;;4963291;28;20359;-54
2022/11/15 08:41:03;;;;;;;59.78;36.42;;;8.00;99.90;;;;;;4937855;29;20031;-54
2022/11/15 08:43:29;;;;;;;50.90;31.63;;;8.70;99.90;;;;;;4953955;29;20423;-56
2022/11/15 08:45:59;;;;;;;48.05;31.70;;;9.00;99.90;;;;;;4935850;29;20055;-59
2022/11/15 08:48:25;;;;;;;54.85;34.60;;;9.10;99.90;;;;;;4935799;29;20023;-54
2022/11/15 08:50:57;;;;;;;51.42;33.85;;;9.00;99.90;;;;;;4952398;29;20481;-56
2022/11/15 08:53:23;;;;;;;64.07;38.75;;;9.00;99.90;;;;;;4970774;28;20046;-58
2022/11/15 08:55:49;;;;;;;62.90;36.85;;;9.30;99.90;;;;;;4972070;28;20027;-57
2022/11/15 08:58:14;;;;;;;55.38;34.95;;;9.90;99.90;;;;;;4972679;28;20470;-57
2022/11/15 09:00:40;;;;;;;48.47;31.90;;;9.80;99.90;;;;;;4973921;28;20034;-57
2022/11/15 09:03:08;;;;;;;53.53;34.28;;;10.20;99.90;;;;;;4974319;28;20481;-57
2022/11/15 09:05:37;;;;;;;51.42;32.72;;;10.10;99.90;;;;;;4973707;28;20027;-54
2022/11/15 09:08:03;;;;;;;50.05;33.25;;;10.80;99.90;;;;;;4940669;28;20027;-56
2022/11/15 09:10:29;;;;;;;53.47;32.53;;;10.60;99.90;;;;;;4973871;28;20031;-56
2022/11/15 09:12:57;;;;;;;50.45;32.95;;;10.90;99.90;;;;;;4973722;28;20081;-56
2022/11/15 09:15:25;;;;;;;45.92;30.92;;;11.30;99.90;;;;;;4973829;28;20074;-56
2022/11/15 09:17:51;;;;;;;51.85;32.20;;;12.00;99.90;;;;;;4972465;28;20042;-52
2022/11/15 09:20:19;;;;;;;54.17;33.47;;;11.80;99.90;;;;;;4973500;28;20031;-54
2022/11/15 09:22:45;;;;;;;51.63;33.58;;;12.30;99.90;;;;;;4973552;28;20035;-52
2022/11/15 09:25:11;;;;;;;46.97;31.20;;;12.30;99.90;;;;;;4956432;28;20034;-54
2022/11/15 09:27:36;;;;;;;53.67;33.72;;;12.10;99.90;;;;;;4973653;28;20033;-53
2022/11/15 09:30:03;;;;;;;48.85;31.95;;;12.10;99.90;;;;;;4973307;28;20022;-52
2022/11/15 09:32:33;;;;;;;45.42;30.00;;;12.70;99.90;;;;;;4973185;28;20043;-56
2022/11/15 09:34:58;;;;;;;47.25;30.65;;;13.20;99.90;;;;;;4962478;28;20118;-56
2022/11/15 09:37:24;;;;;;;52.15;32.80;;;13.10;99.90;;;;;;4954069;28;20102;-54
2022/11/15 09:39:50;;;;;;;47.90;30.15;;;13.90;99.90;;;;;;4971190;28;20027;-54
2022/11/15 09:42:53;;;;;;;46.25;30.63;;;15.50;99.90;;;;;;4972612;28;20600;-53
2022/11/15 09:45:39;;;;;;;41.55;27.08;;;15.60;99.90;;;;;;4970870;28;20043;-54
2022/11/15 09:48:23;;;;;;;42.22;27.85;;;14.90;99.90;;;;;;4971975;28;20030;-56
2022/11/15 09:50:50;;;;;;;40.30;25.33;;;16.00;99.90;;;;;;4971954;28;20023;-52
2022/11/15 09:53:25;;;;;;;39.72;23.33;;;15.40;99.90;;;;;;4972837;28;20047;-54
2022/11/15 09:56:01;;;;;;;36.70;21.90;;;14.10;99.90;;;;;;4973201;28;20038;-56
2022/11/15 09:58:37;;;;;;;33.50;21.33;;;14.30;99.90;;;;;;4973167;28;20042;-54
2022/11/15 10:01:11;;;;;;;33.13;20.75;;;14.30;99.90;;;;;;4972794;28;20046;-54
2022/11/15 10:03:41;;;;;;;35.67;22.55;;;13.70;99.90;;;;;;4973101;28;20050;-54
2022/11/15 10:06:16;;;;;;;34.55;21.42;;;13.00;99.90;;;;;;4972845;28;20045;-54
2022/11/15 10:09:26;;;;;;;36.63;21.83;;;13.00;99.90;;;;;;4955668;28;20585;-57
2022/11/15 10:11:52;;;;;;;36.67;22.52;;;12.90;99.90;;;;;;4893850;29;20168;-53
2022/11/15 10:14:21;;;;;;;34.63;22.42;;;12.90;99.90;;;;;;4955904;28;20046;-54
2022/11/15 10:16:53;;;;;;;36.40;22.10;;;13.30;99.90;;;;;;4955252;28;20434;-56
2022/11/15 10:19:28;;;;;;;35.63;22.90;;;13.00;99.90;;;;;;4972461;28;20114;-54
2022/11/15 10:22:00;;;;;;;39.97;24.77;;;12.90;99.90;;;;;;4972630;28;20030;-57
2022/11/15 10:24:28;;;;;;;37.20;23.90;;;13.00;99.90;;;;;;4955156;28;20023;-53
2022/11/15 10:26:55;;;;;;;36.95;21.83;;;12.90;99.90;;;;;;4939104;28;20504;-54
2022/11/15 10:29:22;;;;;;;40.40;22.23;;;13.10;99.90;;;;;;4972815;28;20030;-58
2022/11/15 10:31:51;;;;;;;41.63;23.90;;;12.80;99.90;;;;;;4972469;28;20397;-56
2022/11/15 10:34:22;;;;;;;43.72;23.85;;;12.80;99.90;;;;;;4972281;28;20477;-54
2022/11/15 10:37:01;;;;;;;37.00;23.70;;;13.00;99.90;;;;;;4972158;28;20408;-55
2022/11/15 10:39:28;;;;;;;55.53;24.70;;;12.80;99.90;;;;;;4955233;28;20180;-53
2022/11/15 10:41:54;;;;;;;37.53;21.30;;;12.60;99.90;;;;;;4972389;28;20027;-54
2022/11/15 10:44:25;;;;;;;41.15;23.67;;;12.60;99.90;;;;;;4971962;28;20532;-56
2022/11/15 10:46:54;;;;;;;38.70;21.25;;;12.70;99.90;;;;;;4972337;28;20049;-56
2022/11/15 10:49:25;;;;;;;37.78;22.23;;;12.60;99.90;;;;;;4970618;28;20518;-54
2022/11/15 10:52:01;;;;;;;43.28;23.67;;;12.40;99.90;;;;;;4970781;28;20106;-58
2022/11/15 10:54:43;;;;;;;39.00;22.55;;;12.50;99.90;;;;;;4972235;28;20066;-54
2022/11/15 10:57:31;;;;;;;36.70;23.35;;;12.60;99.90;;;;;;4972021;28;20489;-58
2022/11/15 11:00:20;;;;;;;37.28;22.20;;;12.60;99.90;;;;;;4954442;28;20355;-54
2022/11/15 11:02:58;;;;;;;40.45;21.98;;;12.50;99.90;;;;;;4971769;28;20079;-55
2022/11/15 11:05:33;;;;;;;40.70;22.45;;;12.40;99.90;;;;;;4971732;28;20031;-59
2022/11/15 11:08:10;;;;;;;37.15;21.77;;;12.50;99.90;;;;;;4971963;28;20047;-58
2022/11/15 11:10:37;;;;;;;36.20;20.15;;;12.50;99.90;;;;;;4971869;28;20102;-58
2022/11/15 11:13:23;;;;;;;37.00;21.03;;;12.60;99.90;;;;;;4971582;28;20053;-53
2022/11/15 11:16:08;;;;;;;34.70;19.88;;;12.60;99.90;;;;;;4971695;28;20062;-57
2022/11/15 11:19:16;;;;;;;36.10;19.88;;;12.60;99.90;;;;;;4971519;28;20097;-55
2022/11/15 11:21:56;;;;;;;34.00;18.52;;;12.50;99.90;;;;;;4971001;28;20413;-56
2022/11/15 11:24:25;;;;;;;31.73;20.35;;;12.50;99.90;;;;;;4971350;28;20078;-58
2022/11/15 11:27:12;;;;;;;33.47;20.25;;;12.50;99.90;;;;;;4971415;28;20026;-56
2022/11/15 11:29:53;;;;;;;33.80;19.48;;;12.60;99.90;;;;;;4971047;28;20027;-58
2022/11/15 11:32:24;;;;;;;37.38;20.67;;;12.60;99.90;;;;;;4971163;28;20503;-55
2022/11/15 11:34:59;;;;;;;31.00;18.23;;;12.60;99.90;;;;;;4971098;28;20718;-58
2022/11/15 11:37:47;;;;;;;34.88;21.17;;;12.60;99.90;;;;;;4970704;28;20018;-55
2022/11/15 11:40:24;;;;;;;36.50;19.58;;;12.80;99.90;;;;;;4971083;28;20050;-55
2022/11/15 11:43:18;;;;;;;33.28;20.30;;;12.80;99.90;;;;;;4970969;28;20034;-57
2022/11/15 11:46:12;;;;;;;37.40;20.08;;;12.70;99.90;;;;;;4970469;28;20146;-54
2022/11/15 11:48:59;;;;;;;29.40;19.65;;;12.70;99.90;;;;;;4934308;28;20034;-57
2022/11/15 11:51:30;;;;;;;32.20;19.58;;;12.70;99.90;;;;;;4971178;28;20057;-56
2022/11/15 11:53:59;;;;;;;35.90;21.13;;;13.00;99.90;;;;;;4971253;28;20423;-54
2022/11/15 11:56:29;;;;;;;33.47;21.40;;;13.00;99.90;;;;;;4970786;28;20082;-56
2022/11/15 11:59:06;;;;;;;38.25;22.88;;;13.00;99.90;;;;;;4977116;28;20343;-54
2022/11/15 12:01:41;;;;;;;40.27;22.53;;;12.90;99.90;;;;;;4977393;28;20057;-53
2022/11/15 12:04:35;;;;;;;38.65;21.55;;;13.00;99.90;;;;;;4977276;28;20061;-57
2022/11/15 12:07:07;;;;;;;41.55;23.33;;;12.80;99.90;;;;;;4973099;28;20530;-54
2022/11/15 12:09:32;;;;;;;42.70;25.83;;;13.00;99.90;;;;;;4977094;28;20023;-54
2022/11/15 12:12:04;;;;;;;42.90;23.92;;;13.10;99.90;;;;;;4976959;28;20122;-55
2022/11/15 12:14:36;;;;;;;53.22;24.92;;;13.30;99.90;;;;;;4975838;28;20023;-54
2022/11/15 12:17:02;;;;;;;40.67;24.02;;;13.40;99.90;;;;;;4976872;28;20042;-54
2022/11/15 12:19:29;;;;;;;43.03;26.38;;;13.30;99.90;;;;;;4977170;28;20034;-52
2022/11/15 12:22:23;;;;;;;42.38;25.52;;;13.50;99.90;;;;;;4976834;28;20029;-53
2022/11/15 12:24:59;;;;;;;44.00;26.63;;;13.60;99.90;;;;;;4975598;28;20413;-55
2022/11/15 12:27:42;;;;;;;40.97;25.50;;;13.30;99.90;;;;;;4977019;28;20053;-52
2022/11/15 12:30:16;;;;;;;51.13;28.95;;;13.20;99.90;;;;;;4977071;28;20031;-53
2022/11/15 12:32:54;;;;;;;49.83;29.30;;;13.20;99.90;;;;;;4976830;28;20038;-56
2022/11/15 12:35:39;;;;;;;46.25;26.38;;;13.10;99.90;;;;;;4977189;28;20023;-56
2022/11/15 12:38:10;;;;;;;49.15;30.45;;;13.10;99.90;;;;;;4976681;28;20436;-52
2022/11/15 12:40:39;;;;;;;87.75;30.85;;;13.10;99.90;;;;;;4976888;28;20481;-56
2022/11/15 12:43:14;;;;;;;59.20;31.38;;;13.10;99.90;;;;;;4976753;28;20035;-53
2022/11/15 12:45:42;;;;;;;70.75;31.88;;;13.00;99.90;;;;;;4976253;28;20043;-53
2022/11/15 12:48:17;;;;;;;43.70;25.35;;;12.90;99.90;;;;;;4976658;28;20050;-57
2022/11/15 12:50:53;;;;;;;46.35;26.85;;;12.80;99.90;;;;;;4976305;28;20039;-54
2022/11/15 12:53:25;;;;;;;45.70;28.90;;;12.80;99.90;;;;;;4975889;28;20085;-56
2022/11/15 12:56:03;;;;;;;47.00;28.33;;;12.70;99.90;;;;;;4957217;29;20031;-58
2022/11/15 12:58:48;;;;;;;;;;;12.80;99.90;;;;;;4957876;28;20062;-54
2022/11/15 13:01:33;;;;;;;46.25;28.50;;;12.80;99.90;;;;;;4973409;28;19906;-56
2022/11/15 13:04:08;;;;;;;52.50;29.33;;;12.70;99.90;;;;;;4990935;28;20050;-53
2022/11/15 13:06:49;;;;;;;52.45;28.98;;;12.70;99.90;;;;;;4976391;28;20085;-57
2022/11/15 13:09:33;;;;;;;48.13;28.88;;;12.70;99.90;;;;;;4973905;28;20026;-54